Time;durP1;ratioP1;P1;durP2;ratioP2;P2;SDS_P1;SDS_P2;PMS_P1;PMS_P2;Temp;Humidity;BMP_temperature;BMP_pressure;BME280_temperature;BME280_humidity;BME280_pressure;Samples;Min_cycle;Max_cycle;Signal;HPM_P1;HPM_P2
2023/06/22 00:02:18;;;;;;;;;;;;;;;25.04;42.49;100758.00;4840488;29;8439;-84
2023/06/22 00:04:44;;;;;;;;;;;;;;;25.00;42.42;100756.25;4861391;29;8346;-86
2023/06/22 00:07:10;;;;;;;;;;;;;;;25.00;42.55;100765.91;4865202;29;8526;-86
2023/06/22 00:09:36;;;;;;;;;;;;;;;24.96;42.56;100765.03;4839848;29;7175;-86
2023/06/22 00:12:02;;;;;;;;;;;;;;;24.94;42.22;100762.41;4844620;29;8555;-86
2023/06/22 00:14:28;;;;;;;;;;;;;;;24.91;42.25;100764.19;4846357;29;8671;-86
2023/06/22 00:16:57;;;;;;;;;;;;;;;24.89;42.48;100758.09;4831129;29;8558;-86
2023/06/22 00:19:23;;;;;;;;;;;;;;;24.90;42.98;100760.72;4837018;29;8796;-86
2023/06/22 00:21:52;;;;;;;;;;;;;;;24.88;42.48;100753.72;4856870;29;8515;-86
2023/06/22 00:24:20;;;;;;;;;;;;;;;24.89;42.25;100763.31;4859048;29;8427;-86
2023/06/22 00:26:46;;;;;;;;;;;;;;;24.87;42.33;100759.84;4872656;29;6957;-86
2023/06/22 00:29:12;;;;;;;;;;;;;;;24.86;42.32;100756.34;4870713;29;8395;-86
2023/06/22 00:31:37;;;;;;;;;;;;;;;24.86;42.54;100755.50;4872450;29;6841;-86
2023/06/22 00:34:03;;;;;;;;;;;;;;;24.85;42.58;100754.59;4861118;29;6826;-86
2023/06/22 00:36:28;;;;;;;;;;;;;;;24.87;41.77;100757.22;4869803;29;8520;-86
2023/06/22 00:38:54;;;;;;;;;;;;;;;24.86;42.03;100748.47;4865977;29;8176;-86
2023/06/22 00:41:22;;;;;;;;;;;;;;;24.88;42.09;100753.72;4830270;29;8643;-84
2023/06/22 00:43:48;;;;;;;;;;;;;;;24.86;42.56;100751.09;4841275;29;7059;-84
2023/06/22 00:46:14;;;;;;;;;;;;;;;24.89;42.05;100747.59;4842347;29;6773;-86
2023/06/22 00:48:43;;;;;;;;;;;;;;;24.90;42.46;100744.97;4855315;29;8975;-86
2023/06/22 00:51:12;;;;;;;;;;;;;;;24.91;42.29;100738.84;4867265;29;8611;-86
2023/06/22 00:53:38;;;;;;;;;;;;;;;24.94;42.15;100745.84;4853225;29;7261;-86
2023/06/22 00:56:05;;;;;;;;;;;;;;;24.92;42.56;100745.84;4860083;29;7312;-86
2023/06/22 00:58:31;;;;;;;;;;;;;;;24.91;42.72;100743.22;4845094;29;7042;-86
2023/06/22 01:00:57;;;;;;;;;;;;;;;24.90;42.25;100739.75;4855114;29;7188;-86
2023/06/22 01:03:23;;;;;;;;;;;;;;;24.88;42.40;100731.03;4836326;29;8482;-86
2023/06/22 01:05:51;;;;;;;;;;;;;;;24.89;42.30;100734.50;4872860;29;7199;-86
2023/06/22 01:08:46;;;;;;;;;;;;;;;24.83;42.14;100724.91;4858154;29;8678;-84
2023/06/22 01:11:52;;;;;;;;;;;;;;;24.77;42.37;100717.06;4842728;29;7454;-84
2023/06/22 01:14:39;;;;;;;;;;;;;;;24.71;42.48;100714.50;4856194;29;8339;-84
2023/06/22 01:17:09;;;;;;;;;;;;;;;24.67;42.85;100713.63;4869246;29;7293;-84
2023/06/22 01:19:46;;;;;;;;;;;;;;;24.65;42.47;100718.88;4855795;29;6918;-84
2023/06/22 01:22:17;;;;;;;;;;;;;;;24.62;43.15;100712.78;4840202;29;6893;-84
2023/06/22 01:25:09;;;;;;;;;;;;;;;24.62;43.09;100716.28;4870930;29;8474;-84
2023/06/22 01:27:41;;;;;;;;;;;;;;;24.61;43.28;100714.53;4868553;29;6981;-86
2023/06/22 01:30:10;;;;;;;;;;;;;;;24.61;43.22;100716.28;4840207;29;6800;-86
2023/06/22 01:32:38;;;;;;;;;;;;;;;24.58;43.21;100711.06;4842478;29;13252;-86
2023/06/22 01:35:08;;;;;;;;;;;;;;;24.59;43.33;100713.69;4855767;29;8267;-86
2023/06/22 01:37:37;;;;;;;;;;;;;;;24.59;43.52;100718.94;4839063;29;8352;-86
2023/06/22 01:40:08;;;;;;;;;;;;;;;24.58;43.42;100708.44;4857622;29;6849;-86
2023/06/22 01:42:36;;;;;;;;;;;;;;;24.58;43.79;100706.69;4823527;29;8499;-86
2023/06/22 01:45:03;;;;;;;;;;;;;;;24.61;43.72;100706.69;4871006;29;7206;-86
2023/06/22 01:47:28;;;;;;;;;;;;;;;24.61;43.89;100709.28;4870616;29;7359;-86
2023/06/22 01:49:55;;;;;;;;;;;;;;;24.60;43.47;100706.69;4831104;29;8771;-86
2023/06/22 01:52:24;;;;;;;;;;;;;;;24.58;43.79;100706.69;4866586;29;7411;-86
2023/06/22 01:54:49;;;;;;;;;;;;;;;24.60;44.41;100706.69;4869303;29;6797;-86
2023/06/22 01:57:15;;;;;;;;;;;;;;;24.58;43.83;100709.31;4869954;29;8927;-86
2023/06/22 02:00:11;;;;;;;;;;;;;;;24.57;44.74;100704.09;4827679;29;8633;-86
2023/06/22 02:02:45;;;;;;;;;;;;;;;24.53;44.48;100693.63;4841689;29;12645;-86
2023/06/22 02:05:18;;;;;;;;;;;;;;;24.50;44.77;100696.25;4846448;29;7153;-87
2023/06/22 02:08:11;;;;;;;;;;;;;;;24.47;45.12;100698.88;4831552;29;7650;-86
2023/06/22 02:10:41;;;;;;;;;;;;;;;24.44;45.19;100692.78;4855858;29;8763;-86
2023/06/22 02:13:10;;;;;;;;;;;;;;;24.41;45.46;100683.19;4851631;29;6881;-86
2023/06/22 02:15:36;;;;;;;;;;;;;;;24.40;45.37;100686.69;4870673;29;6788;-86
2023/06/22 02:18:02;;;;;;;;;;;;;;;24.38;45.28;100678.84;4830452;29;8436;-86
2023/06/22 02:20:28;;;;;;;;;;;;;;;24.38;45.85;100684.06;4866528;29;6780;-86
2023/06/22 02:22:54;;;;;;;;;;;;;;;24.37;45.92;100682.34;4813411;29;8378;-87
2023/06/22 02:25:21;;;;;;;;;;;;;;;24.38;45.90;100676.22;4853242;29;8730;-84
2023/06/22 02:27:46;;;;;;;;;;;;;;;24.37;46.34;100676.25;4853912;29;8450;-84
2023/06/22 02:30:14;;;;;;;;;;;;;;;24.36;46.55;100675.34;4839503;29;8675;-84
2023/06/22 02:32:42;;;;;;;;;;;;;;;24.34;46.77;100674.50;4869862;29;7722;-87
2023/06/22 02:35:09;;;;;;;;;;;;;;;24.36;47.16;100677.13;4851372;29;8408;-88
2023/06/22 02:37:43;;;;;;;;;;;;;;;24.34;46.69;100671.03;4853865;29;9119;-84
2023/06/22 02:40:10;;;;;;;;;;;;;;;24.32;47.18;100672.75;4844617;29;7528;-84
2023/06/22 02:42:37;;;;;;;;;;;;;;;24.32;47.09;100670.13;4860870;29;7356;-84
2023/06/22 02:45:03;;;;;;;;;;;;;;;24.30;47.40;100658.81;4860176;29;7156;-84
2023/06/22 02:47:29;;;;;;;;;;;;;;;24.28;47.36;100664.03;4856130;29;9034;-87
2023/06/22 02:49:55;;;;;;;;;;;;;;;24.30;47.80;100669.28;4875035;29;6784;-84
2023/06/22 02:52:20;;;;;;;;;;;;;;;24.29;47.75;100668.44;4861493;29;8684;-84
2023/06/22 02:54:46;;;;;;;;;;;;;;;24.31;47.73;100671.03;4833909;29;7215;-84
2023/06/22 02:57:13;;;;;;;;;;;;;;;24.33;47.77;100662.28;4870320;29;8339;-84
2023/06/22 02:59:41;;;;;;;;;;;;;;;24.36;48.15;100657.03;4873828;29;7004;-84
2023/06/22 03:02:09;;;;;;;;;;;;;;;24.38;47.78;100651.78;4876567;29;8458;-84
2023/06/22 03:04:35;;;;;;;;;;;;;;;24.39;48.24;100643.06;4874310;29;6917;-85
2023/06/22 03:07:01;;;;;;;;;;;;;;;24.38;47.85;100646.56;4854267;29;8303;-84
2023/06/22 03:09:28;;;;;;;;;;;;;;;24.39;48.29;100646.56;4839639;29;6804;-84
2023/06/22 03:11:54;;;;;;;;;;;;;;;24.39;47.84;100638.69;4875270;29;9327;-84
2023/06/22 03:14:20;;;;;;;;;;;;;;;24.40;48.50;100629.06;4861874;29;8469;-84
2023/06/22 03:16:46;;;;;;;;;;;;;;;24.45;48.83;100629.94;4843710;29;6907;-84
2023/06/22 03:19:13;;;;;;;;;;;;;;;24.43;48.95;100623.81;4833045;29;8413;-87
2023/06/22 03:21:39;;;;;;;;;;;;;;;24.44;48.60;100614.22;4827559;29;8405;-84
2023/06/22 03:24:08;;;;;;;;;;;;;;;24.41;48.68;100607.22;4864966;29;7256;-84
2023/06/22 03:26:38;;;;;;;;;;;;;;;24.40;49.18;100614.25;4860371;29;6975;-84
2023/06/22 03:29:03;;;;;;;;;;;;;;;24.39;49.01;100612.50;4851675;29;8571;-85
2023/06/22 03:31:29;;;;;;;;;;;;;;;24.38;48.58;100609.88;4842932;29;7037;-85
2023/06/22 03:33:55;;;;;;;;;;;;;;;24.38;48.85;100610.72;4858398;29;7259;-85
2023/06/22 03:36:24;;;;;;;;;;;;;;;24.39;49.15;100612.50;4854631;29;7175;-85
2023/06/22 03:38:51;;;;;;;;;;;;;;;24.38;49.00;100604.66;4847641;29;7027;-85
2023/06/22 03:41:25;;;;;;;;;;;;;;;24.38;49.52;100600.25;4860879;29;8456;-85
2023/06/22 03:48:35;;;;;;;;;;;;;;;24.35;49.21;100610.75;4839892;29;7063;-85
2023/06/22 03:55:38;;;;;;;;;;;;;;;24.39;49.65;100622.09;4803574;29;7039;-85
2023/06/22 04:01:47;;;;;;;;;;;;;;;24.42;49.91;100627.31;4840539;29;7162;-85
2023/06/22 04:05:20;;;;;;;;;;;;;;;24.43;49.37;100631.66;4864306;29;8523;-85
2023/06/22 04:07:46;;;;;;;;;;;;;;;24.46;49.86;100629.03;4863470;29;7115;-80
2023/06/22 04:10:14;;;;;;;;;;;;;;;24.47;49.98;100630.78;4879145;29;6773;-81
2023/06/22 04:12:42;;;;;;;;;;;;;;;24.53;49.86;100636.00;4860744;29;7224;-81
2023/06/22 04:15:09;;;;;;;;;;;;;;;24.55;49.75;100634.22;4880277;29;6964;-81
2023/06/22 04:17:38;;;;;;;;;;;;;;;24.58;49.88;100632.47;4896473;29;6784;-81
2023/06/22 04:20:05;;;;;;;;;;;;;;;24.60;50.00;100641.19;4864627;29;7167;-82
2023/06/22 04:22:33;;;;;;;;;;;;;;;24.61;50.00;100641.19;4879374;29;6819;-82
2023/06/22 04:24:59;;;;;;;;;;;;;;;24.63;49.56;100636.78;4884237;29;7267;-81
2023/06/22 04:27:24;;;;;;;;;;;;;;;24.65;49.75;100634.16;4876447;29;8639;-82
2023/06/22 04:29:51;;;;;;;;;;;;;;;24.67;49.96;100628.03;4851238;29;6764;-81
2023/06/22 04:32:17;;;;;;;;;;;;;;;24.70;50.12;100635.00;4864913;29;6991;-81
2023/06/22 04:34:43;;;;;;;;;;;;;;;24.70;50.21;100621.88;4876989;29;8506;-81
2023/06/22 04:37:15;;;;;;;;;;;;;;;24.75;50.01;100617.50;4866127;29;7395;-82
2023/06/22 04:39:45;;;;;;;;;;;;;;;24.76;49.88;100616.63;4864757;29;7055;-81
2023/06/22 04:42:12;;;;;;;;;;;;;;;24.86;50.02;100627.06;4886513;29;6795;-82
2023/06/22 04:44:39;;;;;;;;;;;;;;;24.88;49.97;100617.44;4898522;29;7162;-82
2023/06/22 04:47:08;;;;;;;;;;;;;;;24.92;49.97;100621.78;4863382;29;6819;-82
2023/06/22 04:49:40;;;;;;;;;;;;;;;24.94;49.85;100620.00;4863083;29;7310;-81
2023/06/22 04:52:17;;;;;;;;;;;;;;;24.95;49.73;100621.75;4868203;29;6929;-81
2023/06/22 04:54:50;;;;;;;;;;;;;;;25.01;49.55;100621.66;4864712;29;6996;-82
2023/06/22 04:57:32;;;;;;;;;;;;;;;25.03;49.85;100625.19;4847632;29;8473;-81
2023/06/22 05:00:11;;;;;;;;;;;;;;;25.10;50.01;100629.47;4894742;29;7166;-82
2023/06/22 05:02:56;;;;;;;;;;;;;;;25.17;49.76;100630.31;4894846;29;11451;-82
2023/06/22 05:05:25;;;;;;;;;;;;;;;25.23;49.73;100619.72;4876983;29;7526;-82
2023/06/22 05:07:59;;;;;;;;;;;;;;;25.31;49.73;100626.66;4848838;29;6983;-82
2023/06/22 05:10:30;;;;;;;;;;;;;;;25.34;49.72;100624.88;4880144;29;8479;-81
2023/06/22 05:12:56;;;;;;;;;;;;;;;25.42;49.63;100626.56;4884113;29;6955;-81
2023/06/22 05:15:27;;;;;;;;;;;;;;;25.47;49.87;100620.38;4898339;29;8568;-82
2023/06/22 05:17:56;;;;;;;;;;;;;;;25.50;49.73;100630.88;4860324;29;7418;-82
2023/06/22 05:20:24;;;;;;;;;;;;;;;25.54;49.57;100626.47;4885470;29;8387;-82
2023/06/22 05:22:52;;;;;;;;;;;;;;;25.57;49.74;100629.03;4873569;29;6977;-82
2023/06/22 05:26:42;;;;;;;;;;;;;;;25.61;49.24;100627.25;4861132;29;7030;-82
2023/06/22 05:29:47;;;;;;;;;;;;;;;25.62;49.27;100631.63;4853084;29;7013;-82
2023/06/22 05:32:18;;;;;;;;;;;;;;;25.62;49.37;100629.88;4864000;29;7381;-82
2023/06/22 05:35:01;;;;;;;;;;;;;;;25.63;49.43;100621.13;4867909;29;7139;-82
2023/06/22 05:38:08;;;;;;;;;;;;;;;25.69;49.31;100621.91;4893671;29;6930;-82
2023/06/22 05:40:47;;;;;;;;;;;;;;;25.69;49.40;100625.44;4867259;29;6810;-82
2023/06/22 05:43:40;;;;;;;;;;;;;;;25.73;49.22;100628.88;4881243;29;8417;-82
2023/06/22 05:47:02;;;;;;;;;;;;;;;25.73;49.43;100631.50;4879011;29;7167;-82
2023/06/22 05:49:58;;;;;;;;;;;;;;;;;;;;;
2023/06/22 05:52:54;;;;;;;;;;;;;;;25.91;49.41;100640.91;4871213;29;6852;-82
2023/06/22 05:55:59;;;;;;;;;;;;;;;25.98;49.43;100644.31;4879256;29;8488;-82
2023/06/22 05:58:24;;;;;;;;;;;;;;;26.05;48.89;100632.88;4867779;23;6900;-70
2023/06/22 06:00:50;;;;;;;;;;;;;;;26.09;48.95;100633.69;4839552;29;6804;-70
2023/06/22 06:03:16;;;;;;;;;;;;;;;26.13;48.82;100641.53;4838338;29;6760;-70
2023/06/22 06:05:43;;;;;;;;;;;;;;;26.15;48.87;100639.75;4839177;29;6794;-73
2023/06/22 06:08:10;;;;;;;;;;;;;;;26.18;48.59;100637.09;4827218;29;7858;-70
2023/06/22 06:10:37;;;;;;;;;;;;;;;26.21;48.72;100633.56;4829747;29;7286;-71
2023/06/22 06:13:04;;;;;;;;;;;;;;;26.24;48.72;100637.91;4859165;29;6991;-70
2023/06/22 06:15:30;;;;;;;;;;;;;;;26.23;48.53;100636.19;4828304;29;7192;-71
2023/06/22 06:17:56;;;;;;;;;;;;;;;26.23;48.22;100641.44;4844028;29;7021;-71
2023/06/22 06:20:24;;;;;;;;;;;;;;;26.22;48.29;100647.59;4843767;29;7210;-72
2023/06/22 06:22:50;;;;;;;;;;;;;;;26.24;48.27;100645.78;4845117;29;7221;-71
2023/06/22 06:25:18;;;;;;;;;;;;;;;26.25;48.30;100635.28;4826479;29;7236;-72
2023/06/22 06:27:47;;;;;;;;;;;;;;;26.27;47.92;100637.88;4844341;29;6804;-70
2023/06/22 06:30:14;;;;;;;;;;;;;;;26.29;48.25;100634.34;4842798;29;7149;-71
2023/06/22 06:32:42;;;;;;;;;;;;;;;26.34;48.10;100626.38;4843982;29;6800;-73
2023/06/22 06:35:09;;;;;;;;;;;;;;;26.39;48.05;100627.22;4839643;29;6800;-70
2023/06/22 06:37:49;;;;;;;;;;;;;;;26.43;47.97;100634.13;4843797;29;6857;-72
2023/06/22 06:40:17;;;;;;;;;;;;;;;26.47;48.32;100630.59;4823269;29;6978;-72
2023/06/22 06:42:47;;;;;;;;;;;;;;;26.52;47.75;100625.28;4844251;29;6796;-71
2023/06/22 06:45:24;;;;;;;;;;;;;;;26.56;47.93;100621.69;4842513;29;6804;-71
2023/06/22 06:47:51;;;;;;;;;;;;;;;26.58;47.74;100621.69;4845612;29;6865;-74
2023/06/22 06:50:18;;;;;;;;;;;;;;;26.63;48.00;100622.47;4842974;29;6816;-70
2023/06/22 06:52:44;;;;;;;;;;;;;;;26.74;47.86;100617.91;4839922;29;6975;-70
2023/06/22 06:55:11;;;;;;;;;;;;;;;26.89;47.75;100613.34;4844943;29;6853;-70
2023/06/22 06:57:42;;;;;;;;;;;;;;;27.05;47.60;100618.34;4841944;29;6800;-73
2023/06/22 07:00:13;;;;;;;;;;;;;;;27.17;47.46;100615.50;4844180;29;7264;-70
2023/06/22 07:02:41;;;;;;;;;;;;;;;27.32;47.33;100614.34;4834097;29;11883;-71
2023/06/22 07:05:07;;;;;;;;;;;;;;;27.45;47.14;100609.72;4855045;29;7171;-70
2023/06/22 07:07:33;;;;;;;;;;;;;;;27.56;46.51;100607.78;4832212;29;7289;-74
2023/06/22 07:09:59;;;;;;;;;;;;;;;27.63;46.16;100597.13;4839177;29;6804;-73
2023/06/22 07:12:25;;;;;;;;;;;;;;;27.69;46.45;100592.59;4856655;29;7227;-71
2023/06/22 07:14:52;;;;;;;;;;;;;;;27.81;46.05;100585.34;4839711;29;6912;-70
2023/06/22 07:17:18;;;;;;;;;;;;;;;27.97;46.27;100578.88;4857421;29;7238;-72
2023/06/22 07:19:43;;;;;;;;;;;;;;;28.16;46.29;100573.19;4827572;29;7129;-70
2023/06/22 07:22:09;;;;;;;;;;;;;;;28.35;45.89;100560.47;4844049;29;6777;-70
2023/06/22 07:24:34;;;;;;;;;;;;;;;28.60;45.29;100564.28;4825652;29;7301;-70
2023/06/22 07:27:02;;;;;;;;;;;;;;;28.81;44.96;100557.59;4843594;29;7052;-73
2023/06/22 07:29:27;;;;;;;;;;;;;;;28.97;44.60;100550.19;4857337;29;6808;-73
2023/06/22 07:31:56;;;;;;;;;;;;;;;29.10;44.13;100545.44;4839612;29;6865;-72
2023/06/22 07:34:22;;;;;;;;;;;;;;;29.19;43.82;100546.97;4838500;29;6804;-71
2023/06/22 07:36:47;;;;;;;;;;;;;;;29.31;43.95;100535.19;4837353;29;6813;-72
2023/06/22 07:39:14;;;;;;;;;;;;;;;29.43;43.81;100523.44;4846454;29;6781;-71
2023/06/22 07:41:42;;;;;;;;;;;;;;;29.52;43.11;100518.78;4839193;29;6980;-73
2023/06/22 07:44:08;;;;;;;;;;;;;;;29.59;42.69;100518.59;4843072;29;6812;-72
2023/06/22 07:46:34;;;;;;;;;;;;;;;29.59;42.34;100524.72;4844328;29;8496;-72
2023/06/22 07:49:01;;;;;;;;;;;;;;;29.57;42.29;100525.72;4859269;29;6849;-72
2023/06/22 07:51:26;;;;;;;;;;;;;;;29.59;42.59;100523.88;4844276;29;6809;-72
2023/06/22 07:53:52;;;;;;;;;;;;;;;29.75;42.51;100522.53;4840504;29;6781;-73
2023/06/22 07:56:20;;;;;;;;;;;;;;;29.97;42.29;100516.56;4828682;29;7378;-72
2023/06/22 07:58:47;;;;;;;;;;;;;;;30.13;42.78;100524.91;4827300;29;7301;-72
2023/06/22 08:01:16;;;;;;;;;;;;;;;30.33;42.06;100526.03;4856376;29;6947;-72
2023/06/22 08:03:42;;;;;;;;;;;;;;;30.57;42.01;100524.34;4841758;29;7243;-71
2023/06/22 08:06:09;;;;;;;;;;;;;;;30.80;41.28;100509.47;4841640;29;6973;-72
2023/06/22 08:08:36;;;;;;;;;;;;;;;30.94;40.92;100503.72;4847551;29;7003;-71
2023/06/22 08:11:02;;;;;;;;;;;;;;;31.09;40.30;100504.94;4825151;29;7020;-73
2023/06/22 08:13:28;;;;;;;;;;;;;;;31.42;40.26;100496.72;4843769;29;6951;-72
2023/06/22 08:15:54;;;;;;;;;;;;;;;31.83;39.75;100495.19;4827639;29;6992;-72
2023/06/22 08:18:20;;;;;;;;;;;;;;;32.08;38.69;100478.31;4844396;29;6960;-73
2023/06/22 08:20:45;;;;;;;;;;;;;;;32.25;38.68;100470.50;4846409;29;7003;-71
2023/06/22 08:23:11;;;;;;;;;;;;;;;32.39;38.18;100461.13;4843544;29;6957;-72
2023/06/22 08:25:37;;;;;;;;;;;;;;;32.41;37.43;100464.56;4841418;29;6773;-72
2023/06/22 08:28:04;;;;;;;;;;;;;;;32.44;37.24;100450.34;4844213;29;6860;-72
2023/06/22 08:30:30;;;;;;;;;;;;;;;32.42;37.18;100459.22;4843531;29;6859;-72
2023/06/22 08:32:56;;;;;;;;;;;;;;;32.35;37.13;100470.09;4829328;29;6960;-72
2023/06/22 08:35:25;;;;;;;;;;;;;;;32.37;36.84;100469.16;4842584;29;7049;-72
2023/06/22 08:37:52;;;;;;;;;;;;;;;32.62;36.93;100469.88;4842994;29;7230;-73
2023/06/22 08:40:22;;;;;;;;;;;;;;;32.78;36.71;100478.91;4837939;29;6797;-71
2023/06/22 08:42:49;;;;;;;;;;;;;;;32.68;36.87;100473.13;4850944;29;7007;-73
2023/06/22 08:45:15;;;;;;;;;;;;;;;32.50;36.64;100472.13;4842692;29;6836;-71
2023/06/22 08:47:42;;;;;;;;;;;;;;;32.38;37.20;100484.13;4819190;29;6993;-71
2023/06/22 08:50:12;;;;;;;;;;;;;;;32.27;36.81;100484.56;4850166;29;7417;-70
2023/06/22 08:52:41;;;;;;;;;;;;;;;32.22;37.54;100475.09;4839825;29;6789;-71
2023/06/22 08:55:08;;;;;;;;;;;;;;;32.39;38.15;100466.44;4852402;29;7003;-71
2023/06/22 08:57:37;;;;;;;;;;;;;;;32.79;38.26;100462.03;4839034;29;6797;-73
2023/06/22 09:00:05;;;;;;;;;;;;;;;33.23;37.63;100458.34;4830620;29;7047;-70
2023/06/22 09:02:31;;;;;;;;;;;;;;;33.63;36.72;100457.41;4835317;29;6800;-71
2023/06/22 09:05:04;;;;;;;;;;;;;;;33.94;36.40;100448.81;4819946;29;6801;-72
2023/06/22 09:07:30;;;;;;;;;;;;;;;34.12;36.18;100440.88;4826553;29;7024;-73
2023/06/22 09:09:56;;;;;;;;;;;;;;;34.29;35.67;100441.81;4838790;29;6769;-73
2023/06/22 09:12:25;;;;;;;;;;;;;;;34.55;35.78;100447.59;4837490;29;6797;-74
2023/06/22 09:14:51;;;;;;;;;;;;;;;34.74;35.43;100443.03;4854029;29;6808;-72
2023/06/22 09:17:17;;;;;;;;;;;;;;;34.68;34.49;100439.84;4821879;29;6785;-74
2023/06/22 09:19:42;;;;;;;;;;;;;;;34.38;35.22;100428.03;4827062;29;6792;-73
2023/06/22 09:22:08;;;;;;;;;;;;;;;34.21;34.88;100421.81;4826516;29;6852;-73
2023/06/22 09:24:34;;;;;;;;;;;;;;;34.07;35.21;100414.53;4835140;29;6773;-73
2023/06/22 09:26:59;;;;;;;;;;;;;;;33.91;35.67;100411.75;4839286;29;6921;-74
2023/06/22 09:29:25;;;;;;;;;;;;;;;33.66;35.38;100410.31;4826882;29;7722;-73
2023/06/22 09:31:53;;;;;;;;;;;;;;;33.37;35.38;100411.69;4854084;29;6769;-73
2023/06/22 09:34:20;;;;;;;;;;;;;;;33.05;36.12;100412.28;4849233;29;6864;-73
2023/06/22 09:36:46;;;;;;;;;;;;;;;32.76;36.54;100416.22;4834668;29;6991;-72
2023/06/22 09:39:12;;;;;;;;;;;;;;;32.54;37.20;100420.69;4850767;29;6816;-73
2023/06/22 09:41:37;;;;;;;;;;;;;;;32.40;37.42;100425.72;4850455;29;6983;-73
2023/06/22 09:44:03;;;;;;;;;;;;;;;32.25;37.92;100424.56;4868987;29;7674;-72
2023/06/22 09:46:29;;;;;;;;;;;;;;;32.09;37.96;100419.06;4849818;29;6836;-72
2023/06/22 09:48:54;;;;;;;;;;;;;;;31.91;38.15;100434.81;4844213;29;7007;-71
2023/06/22 09:51:21;;;;;;;;;;;;;;;31.71;38.50;100433.78;4839748;29;6784;-70
2023/06/22 09:53:47;;;;;;;;;;;;;;;31.50;38.89;100454.03;4840907;29;6964;-71
2023/06/22 09:56:16;;;;;;;;;;;;;;;31.30;38.88;100466.25;4833261;29;7139;-71
2023/06/22 09:58:44;;;;;;;;;;;;;;;31.12;39.42;100474.84;4853966;29;6816;-71
2023/06/22 10:01:10;;;;;;;;;;;;;;;30.99;39.72;100500.91;4840441;29;7271;-71
2023/06/22 10:03:36;;;;;;;;;;;;;;;30.89;39.75;100503.88;4846013;29;6792;-71
2023/06/22 10:06:03;;;;;;;;;;;;;;;30.82;40.54;100518.25;4828794;29;6837;-74
2023/06/22 10:08:29;;;;;;;;;;;;;;;30.76;40.40;100521.09;4826251;29;7227;-73
2023/06/22 10:10:55;;;;;;;;;;;;;;;30.69;41.17;100530.16;4841368;29;7310;-73
2023/06/22 10:13:20;;;;;;;;;;;;;;;30.60;41.34;100529.53;4842895;29;7187;-71
2023/06/22 10:15:51;;;;;;;;;;;;;;;30.47;42.20;100538.78;4844563;29;6777;-71
2023/06/22 10:18:17;;;;;;;;;;;;;;;30.24;43.39;100527.22;4857590;29;7049;-73
2023/06/22 10:20:43;;;;;;;;;;;;;;;29.96;43.59;100535.09;4858011;29;6867;-71
2023/06/22 10:23:09;;;;;;;;;;;;;;;29.69;44.90;100535.91;4842332;29;6865;-71
2023/06/22 10:25:35;;;;;;;;;;;;;;;29.52;46.72;100524.06;4843673;29;8371;-71
2023/06/22 10:28:00;;;;;;;;;;;;;;;29.37;47.07;100527.97;4843255;29;7012;-71
2023/06/22 10:30:26;;;;;;;;;;;;;;;29.23;47.44;100523.09;4825404;29;8466;-71
2023/06/22 10:32:52;;;;;;;;;;;;;;;29.10;47.71;100530.47;4828120;29;6991;-71
2023/06/22 10:35:17;;;;;;;;;;;;;;;28.98;48.67;100529.97;4842473;29;6829;-70
2023/06/22 10:37:49;;;;;;;;;;;;;;;28.80;48.72;100526.88;4821622;29;7017;-71
2023/06/22 10:40:16;;;;;;;;;;;;;;;28.65;49.17;100523.72;4839294;29;6868;-71
2023/06/22 10:42:42;;;;;;;;;;;;;;;28.45;50.04;100516.31;4855242;29;7188;-70
2023/06/22 10:45:09;;;;;;;;;;;;;;;28.28;50.11;100514.06;4845201;29;6984;-72
2023/06/22 10:47:35;;;;;;;;;;;;;;;28.09;51.07;100501.31;4839515;29;7287;-71
2023/06/22 10:50:02;;;;;;;;;;;;;;;27.91;51.30;100497.34;4840403;29;7307;-72
2023/06/22 10:52:27;;;;;;;;;;;;;;;27.75;51.94;100481.03;4842718;29;6825;-71
2023/06/22 10:54:53;;;;;;;;;;;;;;;27.59;52.42;100457.66;4842611;29;6946;-71
2023/06/22 10:57:19;;;;;;;;;;;;;;;27.46;52.64;100453.56;4841015;29;7274;-72
2023/06/22 10:59:44;;;;;;;;;;;;;;;27.39;53.26;100463.34;4842618;29;6776;-73
2023/06/22 11:02:10;;;;;;;;;;;;;;;27.36;53.61;100446.75;4842493;29;6788;-73
2023/06/22 11:04:36;;;;;;;;;;;;;;;27.35;54.37;100435.34;4839413;29;6924;-74
2023/06/22 11:07:02;;;;;;;;;;;;;;;27.41;54.77;100423.84;4838683;29;7201;-74
2023/06/22 11:09:27;;;;;;;;;;;;;;;27.51;54.58;100403.47;4840006;29;7008;-73
2023/06/22 11:11:53;;;;;;;;;;;;;;;27.59;55.19;100397.13;4843404;29;8216;-73
2023/06/22 11:14:20;;;;;;;;;;;;;;;27.71;55.26;100397.75;4840365;29;7051;-74
2023/06/22 11:16:46;;;;;;;;;;;;;;;27.84;54.89;100386.03;4840859;29;8153;-74
2023/06/22 11:19:12;;;;;;;;;;;;;;;28.01;55.39;100387.41;4840013;29;7009;-73
2023/06/22 11:21:38;;;;;;;;;;;;;;;28.27;55.55;100381.50;4840319;29;6905;-73
2023/06/22 11:24:04;;;;;;;;;;;;;;;28.79;55.85;100377.47;4839573;29;6817;-71
2023/06/22 11:26:29;;;;;;;;;;;;;;;29.54;54.92;100362.09;4842938;29;7039;-71
2023/06/22 11:28:55;;;;;;;;;;;;;;;30.12;53.65;100354.06;4842996;29;8510;-71
2023/06/22 11:31:21;;;;;;;;;;;;;;;30.56;51.70;100353.41;4837665;29;6797;-71
2023/06/22 11:33:47;;;;;;;;;;;;;;;30.80;51.28;100342.00;4837892;29;7181;-71
2023/06/22 11:36:15;;;;;;;;;;;;;;;30.93;50.73;100329.16;4840284;29;6808;-71
2023/06/22 11:38:40;;;;;;;;;;;;;;;30.98;50.10;100320.13;4840977;29;7200;-71
2023/06/22 11:41:07;;;;;;;;;;;;;;;31.07;49.89;100324.19;4836923;29;7365;-71
2023/06/22 11:43:33;;;;;;;;;;;;;;;31.16;49.21;100329.13;4856357;29;7779;-70
2023/06/22 11:46:00;;;;;;;;;;;;;;;31.27;48.83;100322.56;4842339;29;6801;-71
2023/06/22 11:48:26;;;;;;;;;;;;;;;31.39;48.27;100318.56;4839040;29;7280;-70
2023/06/22 11:50:52;;;;;;;;;;;;;;;31.50;48.18;100323.44;4844009;29;6935;-71
2023/06/22 11:53:17;;;;;;;;;;;;;;;31.55;47.77;100308.22;4829932;29;6987;-70
2023/06/22 11:55:44;;;;;;;;;;;;;;;31.68;47.74;100312.09;4840701;29;7203;-71
2023/06/22 11:58:11;;;;;;;;;;;;;;;31.78;47.71;100306.41;4843355;29;6916;-71
2023/06/22 12:00:37;;;;;;;;;;;;;;;31.76;46.87;100324.13;4828179;29;7225;-70
2023/06/22 12:03:03;;;;;;;;;;;;;;;31.59;46.63;100312.47;4856865;29;6983;-70
2023/06/22 12:05:29;;;;;;;;;;;;;;;31.35;46.71;100309.88;4841447;29;6765;-70
2023/06/22 12:07:55;;;;;;;;;;;;;;;31.07;46.69;100304.81;4840421;29;7123;-71
2023/06/22 12:10:28;;;;;;;;;;;;;;;30.81;46.44;100314.63;4841664;29;6789;-71
2023/06/22 12:12:54;;;;;;;;;;;;;;;30.60;47.05;100309.19;4860690;29;6945;-70
2023/06/22 12:15:20;;;;;;;;;;;;;;;30.50;47.91;100313.94;4871278;29;7420;-70
2023/06/22 12:17:47;;;;;;;;;;;;;;;30.41;47.61;100309.00;4853144;29;6797;-71
2023/06/22 12:20:14;;;;;;;;;;;;;;;30.32;47.59;100303.13;4841282;29;6785;-70
2023/06/22 12:22:41;;;;;;;;;;;;;;;30.21;47.97;100306.16;4839111;29;6804;-70
2023/06/22 12:25:07;;;;;;;;;;;;;;;30.07;48.50;100297.84;4822996;29;7257;-70
2023/06/22 12:27:34;;;;;;;;;;;;;;;29.91;48.99;100302.78;4840785;29;7105;-70
2023/06/22 12:30:00;;;;;;;;;;;;;;;29.71;49.11;100301.69;4841470;29;6864;-71
2023/06/22 12:32:26;;;;;;;;;;;;;;;29.54;50.17;100296.97;4838683;29;7258;-70
2023/06/22 12:34:51;;;;;;;;;;;;;;;29.38;49.96;100299.22;4827202;29;6971;-70
2023/06/22 12:37:17;;;;;;;;;;;;;;;29.24;50.72;100295.22;4836560;29;6980;-71
2023/06/22 12:39:43;;;;;;;;;;;;;;;29.19;50.95;100278.69;4840652;29;6769;-71
2023/06/22 12:42:09;;;;;;;;;;;;;;;29.24;51.51;100282.03;4841834;29;6982;-71
2023/06/22 12:44:39;;;;;;;;;;;;;;;29.31;51.32;100282.72;4836490;29;6788;-71
2023/06/22 12:47:05;;;;;;;;;;;;;;;29.32;51.09;100279.19;4854899;29;6848;-70
2023/06/22 12:49:31;;;;;;;;;;;;;;;29.28;50.75;100276.69;4842504;29;6793;-71
2023/06/22 12:51:57;;;;;;;;;;;;;;;29.18;51.18;100271.69;4840149;29;6984;-72
2023/06/22 12:54:24;;;;;;;;;;;;;;;29.09;51.15;100272.00;4854997;29;7291;-71
2023/06/22 12:56:52;;;;;;;;;;;;;;;29.02;51.59;100273.09;4853040;29;6781;-71
2023/06/22 12:59:18;;;;;;;;;;;;;;;29.02;51.54;100270.44;4839334;29;6952;-70
2023/06/22 13:01:45;;;;;;;;;;;;;;;29.05;51.66;100265.06;4818026;29;6943;-72
2023/06/22 13:04:14;;;;;;;;;;;;;;;29.10;51.53;100263.16;4837429;29;6776;-71
2023/06/22 13:06:47;;;;;;;;;;;;;;;29.10;50.82;100257.88;4839703;29;6818;-69
2023/06/22 13:09:14;;;;;;;;;;;;;;;29.10;51.14;100252.63;4838887;29;6805;-70
2023/06/22 13:11:41;;;;;;;;;;;;;;;29.08;51.29;100249.16;4850677;29;6965;-70